createdAt,value
2022-08-07T00:02:35.168Z,28.26
2022-08-07T00:04:00.800Z,28.25
2022-08-07T00:06:33.413Z,28.09
2022-08-07T00:09:16.198Z,28.19
2022-08-07T00:11:53.825Z,28.24
2022-08-07T00:14:25.529Z,28.18
2022-08-07T00:16:57.498Z,28.23
2022-08-07T00:19:26.264Z,28.22
2022-08-07T00:22:10.415Z,27.90
2022-08-07T00:24:38.567Z,28.21
2022-08-07T00:27:07.259Z,28.21
2022-08-07T00:29:37.040Z,28.20
2022-08-07T00:32:05.885Z,28.19
2022-08-07T00:34:35.651Z,28.05
2022-08-07T00:37:02.675Z,28.18
2022-08-07T00:39:31.859Z,28.19
2022-08-07T00:42:02.415Z,28.18
2022-08-07T00:44:33.033Z,28.18
2022-08-07T00:47:00.591Z,28.16
2022-08-07T00:50:19.863Z,28.09
2022-08-07T00:52:14.594Z,28.16
2022-08-07T00:54:46.452Z,28.04
2022-08-07T00:57:13.880Z,28.05
2022-08-07T00:59:41.307Z,28.04
2022-08-07T01:02:09.050Z,28.13
2022-08-07T01:04:46.910Z,28.13
2022-08-07T01:07:15.019Z,28.12
2022-08-07T01:10:04.947Z,28.12
2022-08-07T01:12:30.949Z,28.12
2022-08-07T01:15:01.142Z,28.10
2022-08-07T01:17:29.337Z,28.10
2022-08-07T01:20:02.194Z,28.10
2022-08-07T01:22:30.965Z,28.09
2022-08-07T01:24:59.610Z,27.92
2022-08-07T01:27:27.212Z,28.00
2022-08-07T01:29:59.789Z,28.08
2022-08-07T01:32:27.725Z,28.08
2022-08-07T01:34:56.087Z,28.06
2022-08-07T01:37:24.473Z,28.05
2022-08-07T01:39:52.269Z,27.92
2022-08-07T01:42:39.220Z,28.05
2022-08-07T01:45:15.755Z,28.05
2022-08-07T01:48:19.373Z,28.03
2022-08-07T01:50:32.532Z,28.04
2022-08-07T01:53:02.026Z,27.93
2022-08-07T01:55:39.460Z,27.98
2022-08-07T01:58:29.053Z,28.03
2022-08-07T02:01:25.192Z,28.04
2022-08-07T02:03:56.552Z,27.97
2022-08-07T02:06:31.325Z,28.01
2022-08-07T02:09:03.595Z,28.04
2022-08-07T02:12:04.213Z,28.00
2022-08-07T02:14:36.308Z,28.02
2022-08-07T02:17:09.435Z,28.01
2022-08-07T02:20:07.817Z,28.01
2022-08-07T02:22:26.248Z,28.00
2022-08-07T02:24:57.175Z,28.00
2022-08-07T02:27:26.354Z,28.00
2022-08-07T02:30:03.884Z,28.00
2022-08-07T02:32:39.467Z,28.00
2022-08-07T02:36:28.415Z,27.90
2022-08-07T02:38:14.132Z,27.99
2022-08-07T02:40:44.223Z,27.83
2022-08-07T02:43:14.724Z,27.97
2022-08-07T02:45:58.231Z,27.90
2022-08-07T02:48:28.194Z,27.91
2022-08-07T02:50:56.346Z,27.98
2022-08-07T02:53:27.349Z,27.97
2022-08-07T02:56:03.568Z,27.97
2022-08-07T02:58:34.095Z,27.96
2022-08-07T03:01:03.090Z,27.96
2022-08-07T03:03:49.239Z,27.96
2022-08-07T03:06:26.167Z,27.96
2022-08-07T03:09:01.690Z,27.95
2022-08-07T03:11:29.434Z,27.95
2022-08-07T03:14:01.583Z,27.95
2022-08-07T03:16:30.403Z,27.92
2022-08-07T03:18:59.277Z,27.84
2022-08-07T03:21:27.421Z,27.27
2022-08-07T03:24:20.625Z,27.94
2022-08-07T03:26:58.492Z,27.93
2022-08-07T03:29:29.551Z,27.94
2022-08-07T03:31:57.010Z,27.94
2022-08-07T03:34:27.784Z,27.90
2022-08-07T03:36:57.429Z,27.93
2022-08-07T03:39:56.651Z,27.85
2022-08-07T03:42:16.994Z,27.93
2022-08-07T03:44:47.164Z,27.86
2022-08-07T03:47:20.050Z,27.93
2022-08-07T03:49:53.345Z,27.92
2022-08-07T03:52:27.378Z,27.92
2022-08-07T03:55:06.196Z,27.92
2022-08-07T03:58:33.992Z,27.91
2022-08-07T04:00:21.053Z,27.91
2022-08-07T04:02:56.852Z,27.91
2022-08-07T04:05:28.617Z,27.91
2022-08-07T04:08:06.632Z,27.91
2022-08-07T04:10:33.413Z,27.90
2022-08-07T04:13:07.578Z,27.90
2022-08-07T04:15:43.337Z,27.90
2022-08-07T04:18:58.537Z,27.80
2022-08-07T04:21:00.811Z,27.90
2022-08-07T04:23:43.302Z,27.88
2022-08-07T04:26:16.976Z,27.77
2022-08-07T04:28:48.637Z,27.89
2022-08-07T04:31:20.053Z,27.82
2022-08-07T04:33:47.384Z,27.89
2022-08-07T04:36:22.776Z,27.89
2022-08-07T04:38:53.069Z,27.89
2022-08-07T04:41:19.592Z,27.89
2022-08-07T04:44:12.056Z,27.89
2022-08-07T04:47:04.333Z,27.89
2022-08-07T04:49:38.640Z,27.88
2022-08-07T04:52:10.872Z,27.88
2022-08-07T04:54:50.659Z,27.89
2022-08-07T04:58:16.449Z,27.89
2022-08-07T05:00:23.986Z,27.81
2022-08-07T05:03:00.572Z,27.87
2022-08-07T05:05:53.463Z,27.87
2022-08-07T05:08:45.396Z,27.85
2022-08-07T05:11:24.496Z,27.85
2022-08-07T05:14:51.941Z,27.85
2022-08-07T05:16:52.745Z,27.84
2022-08-07T05:19:32.711Z,27.84
2022-08-07T05:22:10.958Z,27.84
2022-08-07T05:24:40.435Z,27.83
2022-08-07T05:27:14.561Z,27.83
2022-08-07T05:29:56.899Z,27.83
2022-08-07T05:32:26.350Z,27.81
2022-08-07T05:34:54.393Z,27.67
2022-08-07T05:37:25.150Z,27.70
2022-08-07T05:40:16.797Z,27.83
2022-08-07T05:42:39.366Z,27.83
2022-08-07T05:45:25.987Z,27.83
2022-08-07T05:48:02.016Z,27.81
2022-08-07T05:50:31.565Z,27.82
2022-08-07T05:52:59.479Z,27.82
2022-08-07T05:56:03.735Z,27.83
2022-08-07T05:58:15.026Z,27.76
2022-08-07T06:00:46.230Z,27.68
2022-08-07T06:03:20.028Z,27.82
2022-08-07T06:05:49.855Z,27.82
2022-08-07T06:08:30.928Z,27.75
2022-08-07T06:10:59.009Z,27.83
2022-08-07T06:14:12.619Z,27.83
2022-08-07T06:16:13.692Z,27.85
2022-08-07T06:18:43.058Z,27.84
2022-08-07T06:22:15.555Z,27.84
2022-08-07T06:24:37.748Z,27.85
2022-08-07T06:26:44.914Z,27.86
2022-08-07T06:29:13.684Z,27.74
2022-08-07T06:31:50.108Z,27.86
2022-08-07T06:34:20.831Z,27.88
2022-08-07T06:36:48.352Z,27.88
2022-08-07T06:40:13.703Z,27.87
2022-08-07T06:42:32.881Z,27.88
2022-08-07T06:45:02.997Z,27.88
2022-08-07T06:47:47.906Z,27.88
2022-08-07T06:50:18.920Z,27.88
2022-08-07T06:52:53.152Z,27.89
2022-08-07T06:55:32.413Z,27.89
2022-08-07T06:58:12.416Z,27.89
2022-08-07T07:00:42.411Z,27.88
2022-08-07T07:03:11.124Z,27.89
2022-08-07T07:06:02.652Z,27.78
2022-08-07T07:08:28.924Z,27.90
2022-08-07T07:10:57.428Z,27.71
2022-08-07T07:13:55.582Z,27.83
2022-08-07T07:16:23.779Z,27.90
2022-08-07T07:19:33.920Z,27.90
2022-08-07T07:22:11.377Z,27.88
2022-08-07T07:24:42.988Z,27.91
2022-08-07T07:27:35.754Z,27.91
2022-08-07T07:30:32.393Z,27.91
2022-08-07T07:33:03.702Z,27.91
2022-08-07T07:35:33.902Z,27.92
2022-08-07T07:38:23.326Z,27.77
2022-08-07T07:40:51.875Z,27.92
2022-08-07T07:43:27.485Z,27.91
2022-08-07T07:46:38.505Z,27.94
2022-08-07T07:49:00.065Z,27.94
2022-08-07T07:51:57.878Z,27.88
2022-08-07T07:54:24.964Z,27.96
2022-08-07T07:56:55.132Z,27.96
2022-08-07T07:59:52.464Z,27.97
2022-08-07T08:02:34.083Z,27.97
2022-08-07T08:05:05.292Z,27.89
2022-08-07T08:07:42.401Z,27.99
2022-08-07T08:10:35.671Z,27.99
2022-08-07T08:13:07.348Z,27.98
2022-08-07T08:15:57.981Z,28.00
2022-08-07T08:18:27.593Z,28.00
2022-08-07T08:20:54.566Z,28.00
2022-08-07T08:23:42.687Z,27.91
2022-08-07T08:26:31.014Z,28.01
2022-08-07T08:29:00.812Z,28.02
2022-08-07T08:32:16.728Z,28.02
2022-08-07T08:34:26.627Z,28.03
2022-08-07T08:36:57.966Z,28.03
2022-08-07T08:39:26.300Z,28.03
2022-08-07T08:42:18.196Z,28.04
2022-08-07T08:45:19.588Z,28.04
2022-08-07T08:48:08.236Z,28.04
2022-08-07T08:50:55.363Z,28.05
2022-08-07T08:53:33.734Z,28.06
2022-08-07T08:56:07.432Z,28.06
2022-08-07T08:58:54.680Z,28.06
2022-08-07T09:01:40.218Z,28.01
2022-08-07T09:04:16.355Z,28.07
2022-08-07T09:07:06.040Z,28.05
2022-08-07T09:10:03.220Z,28.07
2022-08-07T09:12:57.168Z,28.08
2022-08-07T09:16:23.002Z,28.07
2022-08-07T09:18:27.901Z,28.09
2022-08-07T09:21:58.141Z,28.09
2022-08-07T09:25:00.260Z,28.10
2022-08-07T09:27:30.337Z,28.11
2022-08-07T09:30:08.493Z,28.11
2022-08-07T09:32:57.378Z,28.11
2022-08-07T09:36:05.013Z,28.11
2022-08-07T09:38:41.531Z,28.13
2022-08-07T09:41:43.064Z,28.12
2022-08-07T09:44:58.751Z,28.13
2022-08-07T09:48:04.092Z,28.13
2022-08-07T09:51:00.593Z,28.14
2022-08-07T09:53:42.334Z,28.13
2022-08-07T09:56:57.137Z,28.14
2022-08-07T10:00:01.262Z,28.14
2022-08-07T10:03:08.193Z,28.15
2022-08-07T10:06:11.991Z,28.14
2022-08-07T10:09:10.291Z,28.14
2022-08-07T10:12:03.095Z,28.14
2022-08-07T10:15:08.832Z,28.15
2022-08-07T10:18:16.626Z,28.16
2022-08-07T10:21:14.880Z,28.15
2022-08-07T10:24:21.578Z,28.17
2022-08-07T10:27:00.095Z,28.16
2022-08-07T10:29:30.468Z,28.17
2022-08-07T10:32:06.673Z,28.18
2022-08-07T10:35:09.051Z,28.19
2022-08-07T10:38:09.585Z,28.19
2022-08-07T10:40:48.356Z,28.20
2022-08-07T10:43:29.878Z,28.21
2022-08-07T10:46:05.971Z,28.22
2022-08-07T10:48:41.587Z,28.22
2022-08-07T10:51:39.196Z,28.22
2022-08-07T10:54:33.146Z,28.23
2022-08-07T10:57:15.451Z,28.22
2022-08-07T10:59:53.163Z,28.23
2022-08-07T11:02:49.447Z,28.24
2022-08-07T11:05:50.608Z,28.25
2022-08-07T11:08:30.457Z,28.25
2022-08-07T11:11:10.345Z,28.25
2022-08-07T11:14:46.195Z,28.24
2022-08-07T11:16:46.816Z,28.28
2022-08-07T11:19:44.027Z,28.28
2022-08-07T11:22:31.628Z,28.29
2022-08-07T11:25:23.700Z,27.96
2022-08-07T11:28:15.555Z,28.30
2022-08-07T11:30:54.262Z,28.32
2022-08-07T11:34:00.442Z,28.32
2022-08-07T11:36:56.433Z,28.34
2022-08-07T11:40:00.673Z,28.33
2022-08-07T11:42:40.731Z,28.34
2022-08-07T11:45:35.442Z,28.35
2022-08-07T11:48:29.649Z,28.37
2022-08-07T11:51:41.904Z,28.38
2022-08-07T11:54:35.919Z,28.39
2022-08-07T11:57:14.163Z,28.39
2022-08-07T12:00:10.043Z,28.40
2022-08-07T12:03:06.705Z,28.41
2022-08-07T12:06:39.009Z,28.42
2022-08-07T12:09:16.764Z,28.43
2022-08-07T12:12:10.950Z,28.43
2022-08-07T12:14:55.461Z,28.44
2022-08-07T12:17:58.835Z,28.46
2022-08-07T12:20:49.368Z,28.34
2022-08-07T12:24:06.209Z,28.48
2022-08-07T12:26:30.892Z,28.46
2022-08-07T12:29:09.694Z,28.50
2022-08-07T12:31:52.817Z,28.34
2022-08-07T12:34:32.946Z,28.51
2022-08-07T12:37:01.471Z,28.48
2022-08-07T12:39:44.422Z,28.52
2022-08-07T12:42:27.324Z,28.51
2022-08-07T12:44:58.007Z,28.53
2022-08-07T12:47:46.374Z,28.53
2022-08-07T12:50:49.173Z,28.54
2022-08-07T12:54:03.090Z,28.54
2022-08-07T12:56:36.599Z,28.38
2022-08-07T12:59:08.159Z,28.38
2022-08-07T13:01:54.639Z,28.46
2022-08-07T13:04:57.691Z,28.53
2022-08-07T13:08:14.535Z,28.53
2022-08-07T13:10:59.392Z,28.50
2022-08-07T13:13:46.659Z,28.47
2022-08-07T13:16:25.085Z,28.46
2022-08-07T13:19:35.138Z,28.49
2022-08-07T13:22:30.847Z,28.48
2022-08-07T13:25:06.806Z,28.43
2022-08-07T13:28:13.052Z,28.35
2022-08-07T13:30:39.964Z,28.48
2022-08-07T13:34:34.617Z,28.47
2022-08-07T13:36:26.081Z,28.48
2022-08-07T13:39:48.932Z,28.48
2022-08-07T13:42:10.476Z,28.43
2022-08-07T13:44:39.663Z,28.48
2022-08-07T13:47:09.859Z,28.49
2022-08-07T13:50:33.661Z,28.50
2022-08-07T13:52:40.822Z,28.51
2022-08-07T13:55:25.911Z,28.52
2022-08-07T13:58:27.866Z,28.54
2022-08-07T14:01:09.162Z,28.55
2022-08-07T14:04:05.468Z,28.55
2022-08-07T14:06:35.490Z,28.56
2022-08-07T14:09:04.690Z,28.57
2022-08-07T14:11:53.906Z,28.56
2022-08-07T14:14:39.816Z,28.57
2022-08-07T14:17:32.074Z,28.57
2022-08-07T14:20:40.375Z,28.58
2022-08-07T14:23:00.204Z,28.58
2022-08-07T14:25:39.407Z,28.58
2022-08-07T14:28:13.595Z,28.58
2022-08-07T14:30:45.743Z,28.59
2022-08-07T14:33:14.944Z,28.60
2022-08-07T14:35:45.141Z,28.43
2022-08-07T14:38:26.646Z,28.60
2022-08-07T14:41:04.938Z,28.61
2022-08-07T14:43:58.386Z,28.63
2022-08-07T14:46:31.199Z,28.63
2022-08-07T14:49:00.185Z,28.63
2022-08-07T14:54:42.100Z,28.56
2022-08-07T14:57:19.217Z,28.49
2022-08-07T15:00:04.695Z,28.58
2022-08-07T15:02:34.684Z,28.65
2022-08-07T15:05:03.449Z,28.65
2022-08-07T15:07:46.336Z,28.64
2022-08-07T15:10:19.740Z,28.65
2022-08-07T15:12:58.068Z,28.65
2022-08-07T15:15:33.694Z,28.64
2022-08-07T15:18:14.433Z,28.51
2022-08-07T15:21:03.903Z,28.64
2022-08-07T15:25:15.013Z,28.65
2022-08-07T15:26:35.388Z,28.65
2022-08-07T15:32:00.946Z,28.65
2022-08-07T15:34:56.861Z,28.66
2022-08-07T15:37:27.878Z,28.66
2022-08-07T15:39:58.504Z,28.66
2022-08-07T15:42:48.004Z,28.65
2022-08-07T15:45:56.822Z,28.66
2022-08-07T15:48:18.601Z,28.66
2022-08-07T15:51:01.918Z,28.66
2022-08-07T15:53:51.559Z,28.49
2022-08-07T15:56:24.235Z,28.67
2022-08-07T15:58:58.852Z,28.68
2022-08-07T16:01:38.671Z,28.69
2022-08-07T16:04:15.605Z,28.41
2022-08-07T16:06:59.320Z,28.70
2022-08-07T16:09:42.179Z,28.71
2022-08-07T16:12:31.419Z,28.71
2022-08-07T16:15:55.526Z,28.71
2022-08-07T16:18:50.361Z,28.71
2022-08-07T16:22:01.794Z,28.63
2022-08-07T16:24:35.072Z,28.69
2022-08-07T16:27:57.393Z,28.72
2022-08-07T16:30:32.547Z,28.72
2022-08-07T16:34:01.993Z,28.72
2022-08-07T16:36:19.742Z,28.58
2022-08-07T16:39:11.302Z,28.73
2022-08-07T16:42:12.434Z,28.68
2022-08-07T16:45:15.239Z,28.73
2022-08-07T16:48:15.221Z,28.75
2022-08-07T16:50:52.823Z,28.74
2022-08-07T16:54:01.145Z,28.76
2022-08-07T16:56:53.591Z,28.76
2022-08-07T16:59:46.189Z,28.78
2022-08-07T17:02:50.889Z,28.80
2022-08-07T17:06:19.160Z,28.81
2022-08-07T17:09:04.206Z,28.81
2022-08-07T17:12:01.392Z,28.83
2022-08-07T17:14:25.013Z,28.81
2022-08-07T17:16:57.931Z,28.83
2022-08-07T17:20:03.020Z,28.84
2022-08-07T17:22:42.495Z,28.72
2022-08-07T17:25:51.408Z,28.85
2022-08-07T17:28:19.641Z,28.71
2022-08-07T17:31:15.781Z,28.86
2022-08-07T17:34:15.071Z,28.71
2022-08-07T17:36:58.376Z,28.87
2022-08-07T17:39:57.830Z,28.88
2022-08-07T17:42:59.606Z,28.88
2022-08-07T17:45:34.911Z,28.87
2022-08-07T17:48:17.159Z,28.60
2022-08-07T17:51:07.507Z,28.92
2022-08-07T17:54:06.412Z,28.92
2022-08-07T17:56:49.927Z,28.92
2022-08-07T17:59:36.359Z,28.66
2022-08-07T18:02:28.003Z,28.90
2022-08-07T18:05:27.259Z,28.94
2022-08-07T18:08:24.506Z,28.94
2022-08-07T18:12:18.164Z,28.86
2022-08-07T18:14:04.915Z,28.90
2022-08-07T18:16:57.443Z,28.89
2022-08-07T18:21:10.964Z,28.86
2022-08-07T18:22:29.569Z,28.85
2022-08-07T18:25:24.228Z,28.79
2022-08-07T18:28:34.480Z,28.82
2022-08-07T18:31:07.636Z,28.78
2022-08-07T18:34:40.925Z,28.79
2022-08-07T18:37:14.626Z,28.79
2022-08-07T18:40:39.935Z,28.73
2022-08-07T18:43:42.952Z,28.77
2022-08-07T18:46:28.199Z,28.75
2022-08-07T18:50:31.211Z,28.68
2022-08-07T18:52:51.650Z,28.74
2022-08-07T18:55:43.047Z,28.66
2022-08-07T18:58:58.557Z,28.75
2022-08-07T19:02:32.137Z,28.73
2022-08-07T19:04:39.749Z,28.60
2022-08-07T19:07:34.376Z,28.74
2022-08-07T19:10:18.425Z,28.75
2022-08-07T19:13:10.176Z,28.74
2022-08-07T19:16:04.956Z,28.74
2022-08-07T19:19:04.279Z,28.74
2022-08-07T19:21:56.144Z,28.72
2022-08-07T19:24:44.531Z,28.71
2022-08-07T19:28:29.219Z,28.72
2022-08-07T19:30:55.809Z,28.66
2022-08-07T19:33:01.444Z,28.72
2022-08-07T19:35:38.405Z,28.72
2022-08-07T19:38:16.757Z,28.72
2022-08-07T19:40:49.879Z,28.52
2022-08-07T19:43:45.024Z,28.72
2022-08-07T19:46:16.050Z,28.73
2022-08-07T19:48:53.954Z,28.72
2022-08-07T19:51:50.508Z,28.73
2022-08-07T19:54:34.869Z,28.66
2022-08-07T19:58:01.098Z,28.72
2022-08-07T19:59:58.198Z,28.66
2022-08-07T20:02:31.497Z,28.71
2022-08-07T20:05:00.619Z,28.57
2022-08-07T20:07:48.082Z,28.60
2022-08-07T20:10:36.477Z,28.71
2022-08-07T20:13:23.945Z,28.72
2022-08-07T20:15:57.842Z,28.63
2022-08-07T20:18:32.017Z,28.71
2022-08-07T20:21:02.111Z,28.48
2022-08-07T20:23:40.710Z,28.70
2022-08-07T20:26:11.972Z,28.71
2022-08-07T20:28:44.067Z,28.70
2022-08-07T20:31:21.920Z,28.38
2022-08-07T20:33:56.593Z,28.71
2022-08-07T20:36:25.264Z,28.70
2022-08-07T20:38:59.879Z,28.71
2022-08-07T20:41:34.148Z,28.71
2022-08-07T20:44:06.353Z,28.71
2022-08-07T20:46:43.772Z,28.71
2022-08-07T20:49:59.135Z,28.70
2022-08-07T20:52:06.599Z,28.71
2022-08-07T20:54:45.641Z,28.70
2022-08-07T20:57:25.337Z,28.70
2022-08-07T21:00:06.831Z,28.64
2022-08-07T21:02:59.149Z,28.69
2022-08-07T21:05:54.425Z,28.68
2022-08-07T21:08:50.982Z,28.68
2022-08-07T21:11:29.042Z,28.66
2022-08-07T21:14:33.617Z,28.67
2022-08-07T21:18:00.766Z,28.63
2022-08-07T21:20:05.611Z,28.67
2022-08-07T21:22:39.079Z,28.65
2022-08-07T21:25:22.696Z,28.66
2022-08-07T21:28:18.836Z,28.65
2022-08-07T21:31:15.129Z,28.64
2022-08-07T21:33:52.060Z,28.50
2022-08-07T21:36:36.093Z,28.64
2022-08-07T21:39:02.545Z,28.63
2022-08-07T21:42:37.562Z,28.63
2022-08-07T21:46:05.152Z,28.62
2022-08-07T21:48:28.943Z,28.63
2022-08-07T21:51:19.409Z,28.62
2022-08-07T21:53:53.189Z,28.60
2022-08-07T21:56:47.018Z,28.61
2022-08-07T22:00:05.341Z,28.60
2022-08-07T22:02:43.164Z,28.45
2022-08-07T22:05:21.655Z,28.58
2022-08-07T22:08:04.449Z,28.58
2022-08-07T22:10:35.444Z,28.57
2022-08-07T22:13:09.366Z,28.48
2022-08-07T22:16:41.464Z,28.57
2022-08-07T22:18:40.759Z,28.55
2022-08-07T22:21:20.844Z,28.57
2022-08-07T22:23:52.086Z,28.55
2022-08-07T22:26:24.023Z,28.55
2022-08-07T22:29:03.702Z,28.55
2022-08-07T22:31:59.641Z,28.55
2022-08-07T22:34:40.158Z,28.54
2022-08-07T22:38:04.490Z,28.52
2022-08-07T22:40:50.426Z,28.53
2022-08-07T22:43:46.392Z,28.50
2022-08-07T22:47:03.603Z,28.50
2022-08-07T22:49:54.337Z,28.49
2022-08-07T22:52:52.767Z,28.49
2022-08-07T22:55:38.224Z,28.48
2022-08-07T22:58:37.917Z,28.47
2022-08-07T23:01:30.533Z,28.47
2022-08-07T23:04:35.941Z,28.46
2022-08-07T23:07:39.985Z,28.46
2022-08-07T23:10:41.849Z,28.46
2022-08-07T23:13:29.504Z,28.46
2022-08-07T23:16:44.762Z,28.45
2022-08-07T23:19:58.060Z,28.43
2022-08-07T23:22:32.606Z,28.43
2022-08-07T23:25:28.702Z,28.42
2022-08-07T23:28:54.447Z,28.06
2022-08-07T23:32:49.310Z,28.42
2022-08-07T23:34:39.970Z,28.41
2022-08-07T23:37:29.306Z,28.41
2022-08-07T23:40:07.402Z,28.40
2022-08-07T23:42:43.179Z,28.40
2022-08-07T23:45:33.122Z,28.32
2022-08-07T23:48:34.175Z,28.39
2022-08-07T23:53:05.740Z,28.39
2022-08-07T23:54:44.575Z,28.38
2022-08-07T23:57:30.544Z,28.39
